sensor_id;sensor_type;location;lat;lon;timestamp;P1;durP1;ratioP1;P2;durP2;ratioP2
38479;SDS011;62333;51.980;5.934;2022-11-21T00:01:13;22.52;;;14.25;;
38479;SDS011;62333;51.980;5.934;2022-11-21T00:03:42;21.75;;;13.73;;
38479;SDS011;62333;51.980;5.934;2022-11-21T00:06:08;22.55;;;16.38;;
38479;SDS011;62333;51.980;5.934;2022-11-21T00:08:33;23.77;;;15.95;;
38479;SDS011;62333;51.980;5.934;2022-11-21T00:10:59;21.30;;;14.98;;
38479;SDS011;62333;51.980;5.934;2022-11-21T00:13:25;20.70;;;14.20;;
38479;SDS011;62333;51.980;5.934;2022-11-21T00:15:50;20.50;;;13.15;;
38479;SDS011;62333;51.980;5.934;2022-11-21T00:18:16;19.73;;;13.60;;
38479;SDS011;62333;51.980;5.934;2022-11-21T00:20:42;21.08;;;14.10;;
38479;SDS011;62333;51.980;5.934;2022-11-21T00:23:08;20.08;;;12.82;;
38479;SDS011;62333;51.980;5.934;2022-11-21T00:25:35;21.30;;;14.25;;
38479;SDS011;62333;51.980;5.934;2022-11-21T00:28:02;21.45;;;14.50;;
38479;SDS011;62333;51.980;5.934;2022-11-21T00:30:28;19.65;;;12.25;;
38479;SDS011;62333;51.980;5.934;2022-11-21T00:32:54;19.88;;;13.60;;
38479;SDS011;62333;51.980;5.934;2022-11-21T00:35:21;18.60;;;13.02;;
38479;SDS011;62333;51.980;5.934;2022-11-21T00:37:47;24.85;;;17.10;;
38479;SDS011;62333;51.980;5.934;2022-11-21T00:40:14;19.98;;;13.70;;
38479;SDS011;62333;51.980;5.934;2022-11-21T00:42:40;21.40;;;14.77;;
38479;SDS011;62333;51.980;5.934;2022-11-21T00:45:07;26.52;;;16.48;;
38479;SDS011;62333;51.980;5.934;2022-11-21T00:47:32;20.83;;;15.88;;
38479;SDS011;62333;51.980;5.934;2022-11-21T00:49:58;22.80;;;15.13;;
38479;SDS011;62333;51.980;5.934;2022-11-21T00:52:24;21.55;;;14.32;;
38479;SDS011;62333;51.980;5.934;2022-11-21T00:54:49;20.45;;;14.02;;
38479;SDS011;62333;51.980;5.934;2022-11-21T00:57:15;21.98;;;15.05;;
38479;SDS011;62333;51.980;5.934;2022-11-21T00:59:40;18.10;;;12.57;;
38479;SDS011;62333;51.980;5.934;2022-11-21T01:02:06;19.27;;;13.18;;
38479;SDS011;62333;51.980;5.934;2022-11-21T01:04:33;20.48;;;12.38;;
38479;SDS011;62333;51.980;5.934;2022-11-21T01:06:59;19.30;;;13.43;;
38479;SDS011;62333;51.980;5.934;2022-11-21T01:09:25;18.08;;;12.82;;
38479;SDS011;62333;51.980;5.934;2022-11-21T01:11:52;22.77;;;16.33;;
38479;SDS011;62333;51.980;5.934;2022-11-21T01:14:18;21.98;;;15.48;;
38479;SDS011;62333;51.980;5.934;2022-11-21T01:16:44;21.55;;;14.82;;
38479;SDS011;62333;51.980;5.934;2022-11-21T01:19:09;20.83;;;13.68;;
38479;SDS011;62333;51.980;5.934;2022-11-21T01:21:35;19.50;;;14.18;;
38479;SDS011;62333;51.980;5.934;2022-11-21T01:24:01;21.55;;;14.15;;
38479;SDS011;62333;51.980;5.934;2022-11-21T01:26:27;20.30;;;13.95;;
38479;SDS011;62333;51.980;5.934;2022-11-21T01:28:54;21.73;;;15.30;;
38479;SDS011;62333;51.980;5.934;2022-11-21T01:31:22;29.50;;;19.75;;
38479;SDS011;62333;51.980;5.934;2022-11-21T01:33:50;26.52;;;18.92;;
38479;SDS011;62333;51.980;5.934;2022-11-21T01:38:44;26.08;;;16.92;;
38479;SDS011;62333;51.980;5.934;2022-11-21T01:41:12;25.05;;;16.27;;
38479;SDS011;62333;51.980;5.934;2022-11-21T01:43:40;24.17;;;16.75;;
38479;SDS011;62333;51.980;5.934;2022-11-21T01:51:59;21.30;;;14.00;;
38479;SDS011;62333;51.980;5.934;2022-11-21T01:56:48;22.48;;;15.02;;
38479;SDS011;62333;51.980;5.934;2022-11-21T01:59:25;20.35;;;14.10;;
38479;SDS011;62333;51.980;5.934;2022-11-21T02:01:54;20.13;;;13.30;;
38479;SDS011;62333;51.980;5.934;2022-11-21T02:04:22;19.55;;;13.48;;
38479;SDS011;62333;51.980;5.934;2022-11-21T02:06:52;25.92;;;16.27;;
38479;SDS011;62333;51.980;5.934;2022-11-21T02:09:18;20.95;;;13.75;;
38479;SDS011;62333;51.980;5.934;2022-11-21T02:11:48;21.88;;;13.35;;
38479;SDS011;62333;51.980;5.934;2022-11-21T02:14:18;22.25;;;14.88;;
38479;SDS011;62333;51.980;5.934;2022-11-21T02:16:44;16.58;;;12.52;;
38479;SDS011;62333;51.980;5.934;2022-11-21T02:19:12;20.65;;;14.70;;
38479;SDS011;62333;51.980;5.934;2022-11-21T02:21:54;19.52;;;13.40;;
38479;SDS011;62333;51.980;5.934;2022-11-21T02:24:38;20.98;;;13.93;;
38479;SDS011;62333;51.980;5.934;2022-11-21T02:27:10;21.17;;;14.77;;
38479;SDS011;62333;51.980;5.934;2022-11-21T02:29:36;18.92;;;12.70;;
38479;SDS011;62333;51.980;5.934;2022-11-21T02:32:03;21.10;;;14.32;;
38479;SDS011;62333;51.980;5.934;2022-11-21T02:34:29;22.40;;;15.98;;
38479;SDS011;62333;51.980;5.934;2022-11-21T02:36:55;23.58;;;14.75;;
38479;SDS011;62333;51.980;5.934;2022-11-21T02:39:22;22.80;;;14.75;;
38479;SDS011;62333;51.980;5.934;2022-11-21T02:42:02;26.73;;;15.63;;
38479;SDS011;62333;51.980;5.934;2022-11-21T02:44:37;22.08;;;16.42;;
38479;SDS011;62333;51.980;5.934;2022-11-21T02:47:17;22.77;;;15.93;;
38479;SDS011;62333;51.980;5.934;2022-11-21T02:52:14;26.50;;;17.23;;
38479;SDS011;62333;51.980;5.934;2022-11-21T02:54:41;24.27;;;16.80;;
38479;SDS011;62333;51.980;5.934;2022-11-21T02:57:06;27.27;;;16.33;;
38479;SDS011;62333;51.980;5.934;2022-11-21T02:59:32;23.80;;;16.63;;
38479;SDS011;62333;51.980;5.934;2022-11-21T03:01:57;22.95;;;15.00;;
38479;SDS011;62333;51.980;5.934;2022-11-21T03:04:25;25.33;;;15.88;;
38479;SDS011;62333;51.980;5.934;2022-11-21T03:06:51;25.45;;;15.82;;
38479;SDS011;62333;51.980;5.934;2022-11-21T03:09:16;26.50;;;15.80;;
38479;SDS011;62333;51.980;5.934;2022-11-21T03:11:42;27.73;;;17.92;;
38479;SDS011;62333;51.980;5.934;2022-11-21T03:14:08;30.63;;;20.30;;
38479;SDS011;62333;51.980;5.934;2022-11-21T03:16:33;30.30;;;19.75;;
38479;SDS011;62333;51.980;5.934;2022-11-21T03:18:59;34.17;;;20.92;;
38479;SDS011;62333;51.980;5.934;2022-11-21T03:21:25;30.67;;;19.45;;
38479;SDS011;62333;51.980;5.934;2022-11-21T03:23:50;28.95;;;18.15;;
38479;SDS011;62333;51.980;5.934;2022-11-21T03:26:16;30.15;;;20.73;;
38479;SDS011;62333;51.980;5.934;2022-11-21T03:28:41;27.13;;;18.73;;
38479;SDS011;62333;51.980;5.934;2022-11-21T03:31:07;26.95;;;18.10;;
38479;SDS011;62333;51.980;5.934;2022-11-21T03:33:33;24.95;;;16.30;;
38479;SDS011;62333;51.980;5.934;2022-11-21T03:35:58;27.60;;;17.90;;
38479;SDS011;62333;51.980;5.934;2022-11-21T03:38:24;26.67;;;15.95;;
38479;SDS011;62333;51.980;5.934;2022-11-21T03:40:50;27.77;;;18.48;;
38479;SDS011;62333;51.980;5.934;2022-11-21T03:43:15;27.20;;;16.90;;
38479;SDS011;62333;51.980;5.934;2022-11-21T03:45:41;32.33;;;19.40;;
38479;SDS011;62333;51.980;5.934;2022-11-21T03:48:09;29.83;;;18.33;;
38479;SDS011;62333;51.980;5.934;2022-11-21T03:50:35;31.20;;;20.05;;
38479;SDS011;62333;51.980;5.934;2022-11-21T03:53:00;32.53;;;21.42;;
38479;SDS011;62333;51.980;5.934;2022-11-21T03:55:26;32.92;;;20.85;;
38479;SDS011;62333;51.980;5.934;2022-11-21T03:57:52;27.85;;;18.95;;
38479;SDS011;62333;51.980;5.934;2022-11-21T04:00:17;31.13;;;19.17;;
38479;SDS011;62333;51.980;5.934;2022-11-21T04:02:43;27.40;;;18.90;;
38479;SDS011;62333;51.980;5.934;2022-11-21T04:05:09;28.25;;;18.15;;
38479;SDS011;62333;51.980;5.934;2022-11-21T04:07:34;28.08;;;20.10;;
38479;SDS011;62333;51.980;5.934;2022-11-21T04:10:00;28.02;;;17.48;;
38479;SDS011;62333;51.980;5.934;2022-11-21T04:12:26;28.40;;;18.17;;
38479;SDS011;62333;51.980;5.934;2022-11-21T04:14:51;27.77;;;17.75;;
38479;SDS011;62333;51.980;5.934;2022-11-21T04:17:17;31.83;;;19.75;;
38479;SDS011;62333;51.980;5.934;2022-11-21T04:19:42;27.25;;;17.33;;
38479;SDS011;62333;51.980;5.934;2022-11-21T04:22:08;28.40;;;17.52;;
38479;SDS011;62333;51.980;5.934;2022-11-21T04:24:34;25.63;;;17.23;;
38479;SDS011;62333;51.980;5.934;2022-11-21T04:26:59;26.42;;;17.95;;
38479;SDS011;62333;51.980;5.934;2022-11-21T04:29:25;25.73;;;16.38;;
38479;SDS011;62333;51.980;5.934;2022-11-21T04:31:50;26.35;;;19.00;;
38479;SDS011;62333;51.980;5.934;2022-11-21T04:34:16;31.73;;;19.33;;
38479;SDS011;62333;51.980;5.934;2022-11-21T04:36:41;31.42;;;18.65;;
38479;SDS011;62333;51.980;5.934;2022-11-21T04:39:07;27.63;;;17.50;;
38479;SDS011;62333;51.980;5.934;2022-11-21T04:41:33;26.92;;;16.65;;
38479;SDS011;62333;51.980;5.934;2022-11-21T04:43:59;26.60;;;17.80;;
38479;SDS011;62333;51.980;5.934;2022-11-21T04:46:25;30.80;;;19.13;;
38479;SDS011;62333;51.980;5.934;2022-11-21T04:48:50;30.58;;;16.77;;
38479;SDS011;62333;51.980;5.934;2022-11-21T04:51:16;31.17;;;20.77;;
38479;SDS011;62333;51.980;5.934;2022-11-21T04:53:42;27.48;;;16.42;;
38479;SDS011;62333;51.980;5.934;2022-11-21T04:56:07;29.92;;;19.40;;
38479;SDS011;62333;51.980;5.934;2022-11-21T04:58:33;34.38;;;19.80;;
38479;SDS011;62333;51.980;5.934;2022-11-21T05:01:04;30.77;;;17.65;;
38479;SDS011;62333;51.980;5.934;2022-11-21T05:03:31;28.63;;;17.92;;
38479;SDS011;62333;51.980;5.934;2022-11-21T05:05:56;29.48;;;18.33;;
38479;SDS011;62333;51.980;5.934;2022-11-21T05:08:22;29.58;;;17.88;;
38479;SDS011;62333;51.980;5.934;2022-11-21T05:10:48;31.45;;;17.95;;
38479;SDS011;62333;51.980;5.934;2022-11-21T05:13:32;31.70;;;18.38;;
38479;SDS011;62333;51.980;5.934;2022-11-21T05:15:57;32.05;;;18.02;;
38479;SDS011;62333;51.980;5.934;2022-11-21T05:18:23;28.42;;;17.25;;
38479;SDS011;62333;51.980;5.934;2022-11-21T05:20:49;33.10;;;18.17;;
38479;SDS011;62333;51.980;5.934;2022-11-21T05:23:14;32.63;;;18.63;;
38479;SDS011;62333;51.980;5.934;2022-11-21T05:25:40;31.60;;;17.65;;
38479;SDS011;62333;51.980;5.934;2022-11-21T05:28:06;29.48;;;16.63;;
38479;SDS011;62333;51.980;5.934;2022-11-21T05:30:31;31.08;;;17.33;;
38479;SDS011;62333;51.980;5.934;2022-11-21T05:32:57;35.03;;;16.90;;
38479;SDS011;62333;51.980;5.934;2022-11-21T05:35:22;34.17;;;20.63;;
38479;SDS011;62333;51.980;5.934;2022-11-21T05:37:53;34.38;;;18.38;;
38479;SDS011;62333;51.980;5.934;2022-11-21T05:40:20;37.75;;;19.63;;
38479;SDS011;62333;51.980;5.934;2022-11-21T05:42:45;43.53;;;20.40;;
38479;SDS011;62333;51.980;5.934;2022-11-21T05:45:29;37.95;;;19.65;;
38479;SDS011;62333;51.980;5.934;2022-11-21T05:47:55;33.58;;;18.77;;
38479;SDS011;62333;51.980;5.934;2022-11-21T05:50:21;34.65;;;20.20;;
38479;SDS011;62333;51.980;5.934;2022-11-21T05:52:46;33.45;;;17.95;;
38479;SDS011;62333;51.980;5.934;2022-11-21T05:55:12;37.00;;;19.35;;
38479;SDS011;62333;51.980;5.934;2022-11-21T05:57:38;36.28;;;21.60;;
38479;SDS011;62333;51.980;5.934;2022-11-21T06:00:03;36.10;;;20.27;;
38479;SDS011;62333;51.980;5.934;2022-11-21T06:02:29;41.47;;;23.42;;
38479;SDS011;62333;51.980;5.934;2022-11-21T06:05:13;32.67;;;18.55;;
38479;SDS011;62333;51.980;5.934;2022-11-21T06:07:39;37.95;;;23.35;;
38479;SDS011;62333;51.980;5.934;2022-11-21T06:10:05;50.70;;;25.20;;
38479;SDS011;62333;51.980;5.934;2022-11-21T06:12:30;47.42;;;22.80;;
38479;SDS011;62333;51.980;5.934;2022-11-21T06:14:56;40.85;;;22.95;;
38479;SDS011;62333;51.980;5.934;2022-11-21T06:17:22;51.40;;;25.90;;
38479;SDS011;62333;51.980;5.934;2022-11-21T06:19:48;39.38;;;23.05;;
38479;SDS011;62333;51.980;5.934;2022-11-21T06:22:13;39.92;;;20.98;;
38479;SDS011;62333;51.980;5.934;2022-11-21T06:24:39;46.53;;;22.60;;
38479;SDS011;62333;51.980;5.934;2022-11-21T06:27:04;45.28;;;22.90;;
38479;SDS011;62333;51.980;5.934;2022-11-21T06:29:30;45.13;;;24.63;;
38479;SDS011;62333;51.980;5.934;2022-11-21T06:31:56;56.05;;;25.52;;
38479;SDS011;62333;51.980;5.934;2022-11-21T06:34:21;62.97;;;27.38;;
38479;SDS011;62333;51.980;5.934;2022-11-21T06:36:49;59.03;;;29.98;;
38479;SDS011;62333;51.980;5.934;2022-11-21T06:39:15;53.20;;;29.88;;
38479;SDS011;62333;51.980;5.934;2022-11-21T06:41:40;48.28;;;27.17;;
38479;SDS011;62333;51.980;5.934;2022-11-21T06:44:06;53.92;;;26.00;;
38479;SDS011;62333;51.980;5.934;2022-11-21T06:46:32;49.78;;;26.27;;
38479;SDS011;62333;51.980;5.934;2022-11-21T06:48:57;42.75;;;22.30;;
38479;SDS011;62333;51.980;5.934;2022-11-21T06:51:23;42.70;;;23.75;;
38479;SDS011;62333;51.980;5.934;2022-11-21T06:53:53;43.95;;;24.75;;
38479;SDS011;62333;51.980;5.934;2022-11-21T06:56:21;42.78;;;22.40;;
38479;SDS011;62333;51.980;5.934;2022-11-21T06:58:48;44.08;;;25.65;;
38479;SDS011;62333;51.980;5.934;2022-11-21T07:01:13;44.22;;;23.75;;
38479;SDS011;62333;51.980;5.934;2022-11-21T07:03:39;49.28;;;22.75;;
38479;SDS011;62333;51.980;5.934;2022-11-21T07:06:05;39.72;;;23.15;;
38479;SDS011;62333;51.980;5.934;2022-11-21T07:08:32;39.95;;;21.85;;
38479;SDS011;62333;51.980;5.934;2022-11-21T07:11:06;36.30;;;20.70;;
38479;SDS011;62333;51.980;5.934;2022-11-21T07:13:33;29.70;;;17.83;;
38479;SDS011;62333;51.980;5.934;2022-11-21T07:16:00;33.38;;;19.63;;
38479;SDS011;62333;51.980;5.934;2022-11-21T07:18:28;32.08;;;20.60;;
38479;SDS011;62333;51.980;5.934;2022-11-21T07:20:57;31.02;;;17.92;;
38479;SDS011;62333;51.980;5.934;2022-11-21T07:23:24;34.35;;;19.83;;
38479;SDS011;62333;51.980;5.934;2022-11-21T07:25:49;30.55;;;18.73;;
38479;SDS011;62333;51.980;5.934;2022-11-21T07:28:15;32.20;;;18.75;;
38479;SDS011;62333;51.980;5.934;2022-11-21T07:30:41;29.02;;;18.08;;
38479;SDS011;62333;51.980;5.934;2022-11-21T07:33:06;32.22;;;18.05;;
38479;SDS011;62333;51.980;5.934;2022-11-21T07:35:33;29.35;;;16.35;;
38479;SDS011;62333;51.980;5.934;2022-11-21T07:38:00;36.25;;;20.38;;
38479;SDS011;62333;51.980;5.934;2022-11-21T07:40:26;34.67;;;20.88;;
38479;SDS011;62333;51.980;5.934;2022-11-21T07:42:52;30.45;;;18.52;;
38479;SDS011;62333;51.980;5.934;2022-11-21T07:45:18;32.88;;;19.58;;
38479;SDS011;62333;51.980;5.934;2022-11-21T07:47:44;36.35;;;21.40;;
38479;SDS011;62333;51.980;5.934;2022-11-21T07:50:10;32.63;;;19.98;;
38479;SDS011;62333;51.980;5.934;2022-11-21T07:52:36;36.20;;;20.00;;
38479;SDS011;62333;51.980;5.934;2022-11-21T07:55:03;37.15;;;21.58;;
38479;SDS011;62333;51.980;5.934;2022-11-21T07:57:30;42.97;;;26.15;;
38479;SDS011;62333;51.980;5.934;2022-11-21T07:59:56;38.17;;;21.77;;
38479;SDS011;62333;51.980;5.934;2022-11-21T08:02:23;39.10;;;22.27;;
38479;SDS011;62333;51.980;5.934;2022-11-21T08:04:52;37.30;;;23.30;;
38479;SDS011;62333;51.980;5.934;2022-11-21T08:07:19;37.38;;;20.85;;
38479;SDS011;62333;51.980;5.934;2022-11-21T08:09:46;43.65;;;22.88;;
38479;SDS011;62333;51.980;5.934;2022-11-21T08:12:12;46.97;;;24.55;;
38479;SDS011;62333;51.980;5.934;2022-11-21T08:14:38;40.22;;;21.55;;
38479;SDS011;62333;51.980;5.934;2022-11-21T08:17:05;42.85;;;22.95;;
38479;SDS011;62333;51.980;5.934;2022-11-21T08:19:30;43.88;;;23.02;;
38479;SDS011;62333;51.980;5.934;2022-11-21T08:21:56;35.67;;;19.52;;
38479;SDS011;62333;51.980;5.934;2022-11-21T08:24:22;40.22;;;20.10;;
38479;SDS011;62333;51.980;5.934;2022-11-21T08:26:48;36.60;;;19.55;;
38479;SDS011;62333;51.980;5.934;2022-11-21T08:29:14;35.75;;;20.20;;
38479;SDS011;62333;51.980;5.934;2022-11-21T08:31:40;38.00;;;18.73;;
38479;SDS011;62333;51.980;5.934;2022-11-21T08:34:06;32.63;;;19.45;;
38479;SDS011;62333;51.980;5.934;2022-11-21T08:36:32;31.25;;;20.73;;
38479;SDS011;62333;51.980;5.934;2022-11-21T08:38:58;31.92;;;20.25;;
38479;SDS011;62333;51.980;5.934;2022-11-21T08:41:24;30.45;;;18.15;;
38479;SDS011;62333;51.980;5.934;2022-11-21T08:44:09;30.85;;;18.13;;
38479;SDS011;62333;51.980;5.934;2022-11-21T08:46:34;34.38;;;19.08;;
38479;SDS011;62333;51.980;5.934;2022-11-21T08:49:07;34.60;;;19.00;;
38479;SDS011;62333;51.980;5.934;2022-11-21T08:51:34;32.47;;;18.60;;
38479;SDS011;62333;51.980;5.934;2022-11-21T08:54:00;34.55;;;19.52;;
38479;SDS011;62333;51.980;5.934;2022-11-21T08:56:26;31.88;;;19.58;;
38479;SDS011;62333;51.980;5.934;2022-11-21T08:58:52;29.80;;;17.95;;
38479;SDS011;62333;51.980;5.934;2022-11-21T09:01:18;34.65;;;19.98;;
38479;SDS011;62333;51.980;5.934;2022-11-21T09:03:43;29.83;;;17.00;;
38479;SDS011;62333;51.980;5.934;2022-11-21T09:06:09;34.67;;;19.77;;
38479;SDS011;62333;51.980;5.934;2022-11-21T09:08:36;35.10;;;19.75;;
38479;SDS011;62333;51.980;5.934;2022-11-21T09:11:02;38.70;;;20.30;;
38479;SDS011;62333;51.980;5.934;2022-11-21T09:13:29;38.67;;;19.88;;
38479;SDS011;62333;51.980;5.934;2022-11-21T09:15:56;35.72;;;18.27;;
38479;SDS011;62333;51.980;5.934;2022-11-21T09:18:40;31.95;;;17.48;;
38479;SDS011;62333;51.980;5.934;2022-11-21T09:21:06;34.75;;;17.42;;
38479;SDS011;62333;51.980;5.934;2022-11-21T09:23:31;38.45;;;19.77;;
38479;SDS011;62333;51.980;5.934;2022-11-21T09:25:58;32.90;;;17.55;;
38479;SDS011;62333;51.980;5.934;2022-11-21T09:28:24;31.55;;;17.50;;
38479;SDS011;62333;51.980;5.934;2022-11-21T09:30:50;35.50;;;19.02;;
38479;SDS011;62333;51.980;5.934;2022-11-21T09:33:16;32.47;;;16.58;;
38479;SDS011;62333;51.980;5.934;2022-11-21T09:35:41;32.55;;;18.85;;
38479;SDS011;62333;51.980;5.934;2022-11-21T09:38:08;37.65;;;17.98;;
38479;SDS011;62333;51.980;5.934;2022-11-21T09:40:34;35.50;;;18.58;;
38479;SDS011;62333;51.980;5.934;2022-11-21T09:46:08;37.42;;;16.80;;
38479;SDS011;62333;51.980;5.934;2022-11-21T09:48:47;35.03;;;18.38;;
38479;SDS011;62333;51.980;5.934;2022-11-21T09:51:24;42.67;;;19.10;;
38479;SDS011;62333;51.980;5.934;2022-11-21T09:56:32;34.53;;;17.63;;
38479;SDS011;62333;51.980;5.934;2022-11-21T10:01:28;37.65;;;18.73;;
38479;SDS011;62333;51.980;5.934;2022-11-21T10:03:54;38.85;;;19.63;;
38479;SDS011;62333;51.980;5.934;2022-11-21T10:06:24;35.83;;;18.95;;
38479;SDS011;62333;51.980;5.934;2022-11-21T10:25:30;41.97;;;20.70;;
38479;SDS011;62333;51.980;5.934;2022-11-21T10:30:39;43.95;;;24.42;;
38479;SDS011;62333;51.980;5.934;2022-11-21T10:33:12;43.50;;;23.33;;
38479;SDS011;62333;51.980;5.934;2022-11-21T10:35:56;62.28;;;26.42;;
38479;SDS011;62333;51.980;5.934;2022-11-21T10:38:27;42.05;;;21.40;;
38479;SDS011;62333;51.980;5.934;2022-11-21T10:43:38;46.65;;;24.23;;
38479;SDS011;62333;51.980;5.934;2022-11-21T10:46:28;41.95;;;26.17;;
38479;SDS011;62333;51.980;5.934;2022-11-21T10:54:02;64.25;;;28.20;;
38479;SDS011;62333;51.980;5.934;2022-11-21T10:56:51;43.08;;;23.10;;
38479;SDS011;62333;51.980;5.934;2022-11-21T10:59:25;45.70;;;23.83;;
38479;SDS011;62333;51.980;5.934;2022-11-21T11:02:38;60.05;;;26.50;;
38479;SDS011;62333;51.980;5.934;2022-11-21T11:04:39;44.55;;;23.15;;
38479;SDS011;62333;51.980;5.934;2022-11-21T11:07:17;49.17;;;24.08;;
38479;SDS011;62333;51.980;5.934;2022-11-21T11:09:48;57.08;;;27.15;;
38479;SDS011;62333;51.980;5.934;2022-11-21T11:15:17;40.00;;;22.60;;
38479;SDS011;62333;51.980;5.934;2022-11-21T11:17:48;46.47;;;23.42;;
38479;SDS011;62333;51.980;5.934;2022-11-21T11:23:14;52.83;;;27.25;;
38479;SDS011;62333;51.980;5.934;2022-11-21T11:25:43;50.70;;;28.23;;
38479;SDS011;62333;51.980;5.934;2022-11-21T11:28:20;49.45;;;27.00;;
38479;SDS011;62333;51.980;5.934;2022-11-21T11:30:48;39.85;;;22.27;;
38479;SDS011;62333;51.980;5.934;2022-11-21T11:33:34;47.05;;;24.27;;
38479;SDS011;62333;51.980;5.934;2022-11-21T11:36:09;44.08;;;23.13;;
38479;SDS011;62333;51.980;5.934;2022-11-21T11:38:46;51.90;;;25.60;;
38479;SDS011;62333;51.980;5.934;2022-11-21T11:45:13;46.80;;;23.42;;
38479;SDS011;62333;51.980;5.934;2022-11-21T11:47:47;40.50;;;22.17;;
38479;SDS011;62333;51.980;5.934;2022-11-21T11:50:18;45.85;;;23.23;;
38479;SDS011;62333;51.980;5.934;2022-11-21T11:52:56;44.80;;;24.15;;
38479;SDS011;62333;51.980;5.934;2022-11-21T12:01:05;48.88;;;23.48;;
38479;SDS011;62333;51.980;5.934;2022-11-21T12:04:26;48.47;;;25.77;;
38479;SDS011;62333;51.980;5.934;2022-11-21T12:06:36;48.58;;;27.00;;
38479;SDS011;62333;51.980;5.934;2022-11-21T12:12:15;45.70;;;26.40;;
38479;SDS011;62333;51.980;5.934;2022-11-21T12:14:45;36.70;;;22.80;;
38479;SDS011;62333;51.980;5.934;2022-11-21T12:18:05;38.08;;;19.40;;
38479;SDS011;62333;51.980;5.934;2022-11-21T12:20:39;46.30;;;23.50;;
38479;SDS011;62333;51.980;5.934;2022-11-21T12:23:14;46.13;;;27.42;;
38479;SDS011;62333;51.980;5.934;2022-11-21T12:26:05;43.60;;;24.83;;
38479;SDS011;62333;51.980;5.934;2022-11-21T12:31:14;45.08;;;22.75;;
38479;SDS011;62333;51.980;5.934;2022-11-21T12:33:54;45.33;;;24.23;;
38479;SDS011;62333;51.980;5.934;2022-11-21T12:59:47;30.83;;;18.23;;
38479;SDS011;62333;51.980;5.934;2022-11-21T13:04:49;29.58;;;17.45;;
38479;SDS011;62333;51.980;5.934;2022-11-21T13:07:17;30.52;;;17.35;;
38479;SDS011;62333;51.980;5.934;2022-11-21T13:09:45;29.63;;;19.33;;
38479;SDS011;62333;51.980;5.934;2022-11-21T13:15:03;25.17;;;18.40;;
38479;SDS011;62333;51.980;5.934;2022-11-21T13:18:39;28.75;;;15.45;;
38479;SDS011;62333;51.980;5.934;2022-11-21T13:20:39;24.85;;;13.95;;
38479;SDS011;62333;51.980;5.934;2022-11-21T13:26:01;23.25;;;14.32;;
38479;SDS011;62333;51.980;5.934;2022-11-21T13:28:46;26.58;;;16.38;;
38479;SDS011;62333;51.980;5.934;2022-11-21T13:31:28;19.85;;;15.48;;
38479;SDS011;62333;51.980;5.934;2022-11-21T13:33:55;21.17;;;15.20;;
38479;SDS011;62333;51.980;5.934;2022-11-21T13:46:56;17.23;;;11.57;;
38479;SDS011;62333;51.980;5.934;2022-11-21T13:49:22;16.23;;;10.48;;
38479;SDS011;62333;51.980;5.934;2022-11-21T13:51:58;20.77;;;10.80;;
38479;SDS011;62333;51.980;5.934;2022-11-21T13:57:11;16.60;;;9.32;;
38479;SDS011;62333;51.980;5.934;2022-11-21T14:08:44;15.18;;;8.90;;
38479;SDS011;62333;51.980;5.934;2022-11-21T14:10:52;20.58;;;9.20;;
38479;SDS011;62333;51.980;5.934;2022-11-21T14:16:02;13.25;;;8.65;;
38479;SDS011;62333;51.980;5.934;2022-11-21T14:18:35;22.02;;;10.45;;
38479;SDS011;62333;51.980;5.934;2022-11-21T14:21:06;13.80;;;8.73;;
38479;SDS011;62333;51.980;5.934;2022-11-21T14:23:51;14.60;;;7.60;;
38479;SDS011;62333;51.980;5.934;2022-11-21T14:26:19;19.15;;;7.95;;
38479;SDS011;62333;51.980;5.934;2022-11-21T14:28:45;13.77;;;7.72;;
38479;SDS011;62333;51.980;5.934;2022-11-21T14:31:12;11.65;;;6.72;;
38479;SDS011;62333;51.980;5.934;2022-11-21T14:33:38;13.95;;;7.93;;
38479;SDS011;62333;51.980;5.934;2022-11-21T14:36:19;14.00;;;6.70;;
38479;SDS011;62333;51.980;5.934;2022-11-21T14:44:34;10.77;;;6.68;;
38479;SDS011;62333;51.980;5.934;2022-11-21T14:46:35;15.43;;;7.22;;
38479;SDS011;62333;51.980;5.934;2022-11-21T14:51:47;8.63;;;5.40;;
38479;SDS011;62333;51.980;5.934;2022-11-21T14:54:16;16.60;;;8.52;;
38479;SDS011;62333;51.980;5.934;2022-11-21T14:56:48;14.05;;;6.18;;
38479;SDS011;62333;51.980;5.934;2022-11-21T14:59:25;15.77;;;7.45;;
38479;SDS011;62333;51.980;5.934;2022-11-21T15:01:54;11.63;;;6.55;;
38479;SDS011;62333;51.980;5.934;2022-11-21T15:04:25;10.55;;;6.95;;
38479;SDS011;62333;51.980;5.934;2022-11-21T15:06:52;13.95;;;6.60;;
38479;SDS011;62333;51.980;5.934;2022-11-21T15:09:18;11.77;;;6.10;;
38479;SDS011;62333;51.980;5.934;2022-11-21T15:11:50;10.43;;;6.18;;
38479;SDS011;62333;51.980;5.934;2022-11-21T15:14:21;13.25;;;6.32;;
38479;SDS011;62333;51.980;5.934;2022-11-21T15:17:03;8.23;;;5.63;;
38479;SDS011;62333;51.980;5.934;2022-11-21T15:19:31;11.00;;;5.97;;
38479;SDS011;62333;51.980;5.934;2022-11-21T15:21:58;11.00;;;6.65;;
38479;SDS011;62333;51.980;5.934;2022-11-21T15:26:56;12.07;;;6.38;;
38479;SDS011;62333;51.980;5.934;2022-11-21T15:29:22;11.05;;;6.35;;
38479;SDS011;62333;51.980;5.934;2022-11-21T15:32:04;9.80;;;6.10;;
38479;SDS011;62333;51.980;5.934;2022-11-21T15:34:34;15.15;;;7.60;;
38479;SDS011;62333;51.980;5.934;2022-11-21T15:37:18;13.57;;;7.25;;
38479;SDS011;62333;51.980;5.934;2022-11-21T15:39:44;18.27;;;8.65;;
38479;SDS011;62333;51.980;5.934;2022-11-21T15:42:28;18.67;;;7.63;;
38479;SDS011;62333;51.980;5.934;2022-11-21T15:47:26;9.88;;;6.30;;
38479;SDS011;62333;51.980;5.934;2022-11-21T15:49:52;14.23;;;7.25;;
38479;SDS011;62333;51.980;5.934;2022-11-21T15:52:18;13.27;;;5.57;;
38479;SDS011;62333;51.980;5.934;2022-11-21T15:54:44;14.27;;;7.60;;
38479;SDS011;62333;51.980;5.934;2022-11-21T15:57:11;17.13;;;6.43;;
38479;SDS011;62333;51.980;5.934;2022-11-21T15:59:38;16.25;;;7.13;;
38479;SDS011;62333;51.980;5.934;2022-11-21T16:02:04;13.40;;;6.75;;
38479;SDS011;62333;51.980;5.934;2022-11-21T16:04:30;15.27;;;7.32;;
38479;SDS011;62333;51.980;5.934;2022-11-21T16:06:56;9.70;;;6.63;;
38479;SDS011;62333;51.980;5.934;2022-11-21T16:09:21;13.18;;;7.97;;
38479;SDS011;62333;51.980;5.934;2022-11-21T16:11:47;14.98;;;8.57;;
38479;SDS011;62333;51.980;5.934;2022-11-21T16:14:13;12.70;;;8.25;;
38479;SDS011;62333;51.980;5.934;2022-11-21T16:16:43;13.73;;;7.53;;
38479;SDS011;62333;51.980;5.934;2022-11-21T16:19:10;10.75;;;7.15;;
38479;SDS011;62333;51.980;5.934;2022-11-21T16:21:36;15.95;;;9.25;;
38479;SDS011;62333;51.980;5.934;2022-11-21T16:24:02;12.90;;;7.65;;
38479;SDS011;62333;51.980;5.934;2022-11-21T16:26:28;15.48;;;7.10;;
38479;SDS011;62333;51.980;5.934;2022-11-21T16:28:54;18.88;;;9.93;;
38479;SDS011;62333;51.980;5.934;2022-11-21T16:31:22;22.52;;;9.63;;
38479;SDS011;62333;51.980;5.934;2022-11-21T16:33:49;11.85;;;7.28;;
38479;SDS011;62333;51.980;5.934;2022-11-21T16:36:21;15.57;;;8.98;;
38479;SDS011;62333;51.980;5.934;2022-11-21T16:38:48;13.25;;;9.00;;
38479;SDS011;62333;51.980;5.934;2022-11-21T16:41:15;11.80;;;8.82;;
38479;SDS011;62333;51.980;5.934;2022-11-21T16:43:50;13.85;;;8.57;;
38479;SDS011;62333;51.980;5.934;2022-11-21T16:46:17;24.20;;;8.88;;
38479;SDS011;62333;51.980;5.934;2022-11-21T16:48:44;15.23;;;9.27;;
38479;SDS011;62333;51.980;5.934;2022-11-21T16:51:13;18.70;;;9.95;;